sensor_id;sensor_type;location;lat;lon;timestamp;temperature;humidity
36280;DHT22;22317;47.936;12.742;2023-05-07T00:02:06;11.70;57.70
36280;DHT22;22317;47.936;12.742;2023-05-07T00:04:33;11.70;57.70
36280;DHT22;22317;47.936;12.742;2023-05-07T00:07:02;11.70;57.80
36280;DHT22;22317;47.936;12.742;2023-05-07T00:09:28;11.70;57.80
36280;DHT22;22317;47.936;12.742;2023-05-07T00:11:54;11.70;57.80
36280;DHT22;22317;47.936;12.742;2023-05-07T00:14:20;11.60;57.90
36280;DHT22;22317;47.936;12.742;2023-05-07T00:16:46;11.60;57.90
36280;DHT22;22317;47.936;12.742;2023-05-07T00:19:12;11.60;57.90
36280;DHT22;22317;47.936;12.742;2023-05-07T00:21:38;11.60;58.00
36280;DHT22;22317;47.936;12.742;2023-05-07T00:24:04;11.60;58.00
36280;DHT22;22317;47.936;12.742;2023-05-07T00:26:30;11.60;58.10
36280;DHT22;22317;47.936;12.742;2023-05-07T00:28:56;11.60;58.00
36280;DHT22;22317;47.936;12.742;2023-05-07T00:31:21;11.60;58.00
36280;DHT22;22317;47.936;12.742;2023-05-07T00:33:47;11.60;58.00
36280;DHT22;22317;47.936;12.742;2023-05-07T00:36:13;11.50;58.00
36280;DHT22;22317;47.936;12.742;2023-05-07T00:38:38;11.50;57.90
36280;DHT22;22317;47.936;12.742;2023-05-07T00:41:05;11.40;58.00
36280;DHT22;22317;47.936;12.742;2023-05-07T00:43:30;11.30;58.00
36280;DHT22;22317;47.936;12.742;2023-05-07T00:45:57;11.30;58.10
36280;DHT22;22317;47.936;12.742;2023-05-07T00:48:23;11.30;58.10
36280;DHT22;22317;47.936;12.742;2023-05-07T00:50:50;11.30;58.30
36280;DHT22;22317;47.936;12.742;2023-05-07T00:53:16;11.20;58.30
36280;DHT22;22317;47.936;12.742;2023-05-07T00:55:42;11.20;58.30
36280;DHT22;22317;47.936;12.742;2023-05-07T00:58:08;11.20;58.40
36280;DHT22;22317;47.936;12.742;2023-05-07T01:00:34;11.20;58.60
36280;DHT22;22317;47.936;12.742;2023-05-07T01:03:01;11.20;58.80
36280;DHT22;22317;47.936;12.742;2023-05-07T01:05:27;11.20;58.70
36280;DHT22;22317;47.936;12.742;2023-05-07T01:07:54;11.20;58.80
36280;DHT22;22317;47.936;12.742;2023-05-07T01:10:21;11.10;58.60
36280;DHT22;22317;47.936;12.742;2023-05-07T01:12:48;11.10;58.70
36280;DHT22;22317;47.936;12.742;2023-05-07T01:15:16;11.10;58.80
36280;DHT22;22317;47.936;12.742;2023-05-07T01:17:45;11.00;58.80
36280;DHT22;22317;47.936;12.742;2023-05-07T01:20:18;11.10;58.90
36280;DHT22;22317;47.936;12.742;2023-05-07T01:22:46;11.00;58.90
36280;DHT22;22317;47.936;12.742;2023-05-07T01:25:12;11.00;58.90
36280;DHT22;22317;47.936;12.742;2023-05-07T01:27:44;11.00;58.90
36280;DHT22;22317;47.936;12.742;2023-05-07T01:30:10;11.00;58.90
36280;DHT22;22317;47.936;12.742;2023-05-07T01:35:11;11.00;59.00
36280;DHT22;22317;47.936;12.742;2023-05-07T01:37:39;11.00;59.00
36280;DHT22;22317;47.936;12.742;2023-05-07T01:40:06;11.00;58.90
36280;DHT22;22317;47.936;12.742;2023-05-07T01:42:33;11.00;58.90
36280;DHT22;22317;47.936;12.742;2023-05-07T01:44:59;10.90;58.80
36280;DHT22;22317;47.936;12.742;2023-05-07T01:47:25;10.90;58.80
36280;DHT22;22317;47.936;12.742;2023-05-07T01:49:52;10.90;58.90
36280;DHT22;22317;47.936;12.742;2023-05-07T01:52:18;10.90;59.00
36280;DHT22;22317;47.936;12.742;2023-05-07T01:54:44;10.90;59.00
36280;DHT22;22317;47.936;12.742;2023-05-07T01:57:10;10.90;58.90
36280;DHT22;22317;47.936;12.742;2023-05-07T01:59:36;10.90;59.00
36280;DHT22;22317;47.936;12.742;2023-05-07T02:02:02;10.90;59.10
36280;DHT22;22317;47.936;12.742;2023-05-07T02:04:29;10.80;59.00
36280;DHT22;22317;47.936;12.742;2023-05-07T02:06:54;10.80;59.00
36280;DHT22;22317;47.936;12.742;2023-05-07T02:09:21;10.80;59.10
36280;DHT22;22317;47.936;12.742;2023-05-07T02:11:49;10.70;59.10
36280;DHT22;22317;47.936;12.742;2023-05-07T02:14:16;10.70;59.10
36280;DHT22;22317;47.936;12.742;2023-05-07T02:16:41;10.60;59.10
36280;DHT22;22317;47.936;12.742;2023-05-07T02:19:08;10.60;59.30
36280;DHT22;22317;47.936;12.742;2023-05-07T02:21:34;10.60;59.40
36280;DHT22;22317;47.936;12.742;2023-05-07T02:24:00;10.60;59.50
36280;DHT22;22317;47.936;12.742;2023-05-07T02:26:26;10.70;59.50
36280;DHT22;22317;47.936;12.742;2023-05-07T02:28:52;10.70;59.50
36280;DHT22;22317;47.936;12.742;2023-05-07T02:31:19;10.70;59.50
36280;DHT22;22317;47.936;12.742;2023-05-07T02:33:45;10.70;59.50
36280;DHT22;22317;47.936;12.742;2023-05-07T02:36:12;10.70;59.50
36280;DHT22;22317;47.936;12.742;2023-05-07T02:38:50;10.80;59.60
36280;DHT22;22317;47.936;12.742;2023-05-07T02:41:16;10.70;59.50
36280;DHT22;22317;47.936;12.742;2023-05-07T02:43:42;10.70;59.40
36280;DHT22;22317;47.936;12.742;2023-05-07T02:46:09;10.70;59.50
36280;DHT22;22317;47.936;12.742;2023-05-07T02:48:39;10.70;59.50
36280;DHT22;22317;47.936;12.742;2023-05-07T02:51:05;10.70;59.50
36280;DHT22;22317;47.936;12.742;2023-05-07T02:53:32;10.70;59.50
36280;DHT22;22317;47.936;12.742;2023-05-07T02:55:59;10.70;59.60
36280;DHT22;22317;47.936;12.742;2023-05-07T02:58:26;10.60;59.60
36280;DHT22;22317;47.936;12.742;2023-05-07T03:00:52;10.60;59.50
36280;DHT22;22317;47.936;12.742;2023-05-07T03:03:41;10.70;59.60
36280;DHT22;22317;47.936;12.742;2023-05-07T03:06:07;10.70;59.60
36280;DHT22;22317;47.936;12.742;2023-05-07T03:08:32;10.60;59.60
36280;DHT22;22317;47.936;12.742;2023-05-07T03:10:58;10.70;59.60
36280;DHT22;22317;47.936;12.742;2023-05-07T03:13:24;10.60;59.40
36280;DHT22;22317;47.936;12.742;2023-05-07T03:15:51;10.60;59.50
36280;DHT22;22317;47.936;12.742;2023-05-07T03:18:16;10.60;59.50
36280;DHT22;22317;47.936;12.742;2023-05-07T03:20:42;10.60;59.60
36280;DHT22;22317;47.936;12.742;2023-05-07T03:23:08;10.50;59.50
36280;DHT22;22317;47.936;12.742;2023-05-07T03:25:34;8.80;58.80
36280;DHT22;22317;47.936;12.742;2023-05-07T03:27:59;10.50;59.50
36280;DHT22;22317;47.936;12.742;2023-05-07T03:30:33;10.50;59.60
36280;DHT22;22317;47.936;12.742;2023-05-07T03:32:59;10.40;59.60
36280;DHT22;22317;47.936;12.742;2023-05-07T03:35:25;10.40;59.60
36280;DHT22;22317;47.936;12.742;2023-05-07T03:37:52;10.40;59.70
36280;DHT22;22317;47.936;12.742;2023-05-07T03:40:19;10.40;59.80
36280;DHT22;22317;47.936;12.742;2023-05-07T03:42:50;10.40;59.80
36280;DHT22;22317;47.936;12.742;2023-05-07T03:45:18;10.40;59.90
36280;DHT22;22317;47.936;12.742;2023-05-07T03:47:49;10.30;59.80
36280;DHT22;22317;47.936;12.742;2023-05-07T03:50:18;10.30;60.00
36280;DHT22;22317;47.936;12.742;2023-05-07T03:52:44;10.30;60.00
36280;DHT22;22317;47.936;12.742;2023-05-07T03:55:11;10.30;60.10
36280;DHT22;22317;47.936;12.742;2023-05-07T03:57:39;10.30;60.10
36280;DHT22;22317;47.936;12.742;2023-05-07T04:00:06;10.30;60.00
36280;DHT22;22317;47.936;12.742;2023-05-07T04:02:46;10.40;60.20
36280;DHT22;22317;47.936;12.742;2023-05-07T04:05:14;10.30;60.00
36280;DHT22;22317;47.936;12.742;2023-05-07T04:07:40;10.30;60.00
36280;DHT22;22317;47.936;12.742;2023-05-07T04:10:08;10.30;60.10
36280;DHT22;22317;47.936;12.742;2023-05-07T04:12:34;10.30;60.20
36280;DHT22;22317;47.936;12.742;2023-05-07T04:15:00;10.40;60.30
36280;DHT22;22317;47.936;12.742;2023-05-07T04:17:27;10.40;60.30
36280;DHT22;22317;47.936;12.742;2023-05-07T04:19:53;10.30;60.30
36280;DHT22;22317;47.936;12.742;2023-05-07T04:22:18;10.30;60.30
36280;DHT22;22317;47.936;12.742;2023-05-07T04:24:44;10.40;60.40
36280;DHT22;22317;47.936;12.742;2023-05-07T04:27:12;10.40;60.40
36280;DHT22;22317;47.936;12.742;2023-05-07T04:29:38;10.40;60.40
36280;DHT22;22317;47.936;12.742;2023-05-07T04:32:09;10.40;60.40
36280;DHT22;22317;47.936;12.742;2023-05-07T04:34:38;10.50;60.40
36280;DHT22;22317;47.936;12.742;2023-05-07T04:37:04;10.50;60.40
36280;DHT22;22317;47.936;12.742;2023-05-07T04:39:30;10.50;60.40
36280;DHT22;22317;47.936;12.742;2023-05-07T04:41:58;10.50;60.50
36280;DHT22;22317;47.936;12.742;2023-05-07T04:44:24;10.60;60.40
36280;DHT22;22317;47.936;12.742;2023-05-07T04:46:50;10.60;60.40
36280;DHT22;22317;47.936;12.742;2023-05-07T04:49:16;10.60;60.20
36280;DHT22;22317;47.936;12.742;2023-05-07T04:51:43;10.70;60.30
36280;DHT22;22317;47.936;12.742;2023-05-07T04:54:10;10.70;60.30
36280;DHT22;22317;47.936;12.742;2023-05-07T04:56:36;10.70;60.20
36280;DHT22;22317;47.936;12.742;2023-05-07T04:59:02;10.70;60.10
36280;DHT22;22317;47.936;12.742;2023-05-07T05:01:29;10.70;60.00
36280;DHT22;22317;47.936;12.742;2023-05-07T05:03:55;10.70;59.80
36280;DHT22;22317;47.936;12.742;2023-05-07T05:06:21;10.70;59.80
36280;DHT22;22317;47.936;12.742;2023-05-07T05:08:47;10.70;59.90
36280;DHT22;22317;47.936;12.742;2023-05-07T05:11:13;10.70;60.00
36280;DHT22;22317;47.936;12.742;2023-05-07T05:13:39;10.80;60.20
36280;DHT22;22317;47.936;12.742;2023-05-07T05:16:11;10.80;60.10
36280;DHT22;22317;47.936;12.742;2023-05-07T05:18:37;10.80;60.20
36280;DHT22;22317;47.936;12.742;2023-05-07T05:21:03;10.80;60.20
36280;DHT22;22317;47.936;12.742;2023-05-07T05:23:30;10.90;60.10
36280;DHT22;22317;47.936;12.742;2023-05-07T05:25:57;10.90;60.20
36280;DHT22;22317;47.936;12.742;2023-05-07T05:28:24;11.00;60.20
36280;DHT22;22317;47.936;12.742;2023-05-07T05:30:50;11.00;60.10
36280;DHT22;22317;47.936;12.742;2023-05-07T05:33:16;11.10;60.20
36280;DHT22;22317;47.936;12.742;2023-05-07T05:35:42;11.10;60.20
36280;DHT22;22317;47.936;12.742;2023-05-07T05:38:11;11.20;60.10
36280;DHT22;22317;47.936;12.742;2023-05-07T05:40:37;11.20;60.20
36280;DHT22;22317;47.936;12.742;2023-05-07T05:43:03;11.20;60.10
36280;DHT22;22317;47.936;12.742;2023-05-07T05:45:30;11.20;60.10
36280;DHT22;22317;47.936;12.742;2023-05-07T05:47:56;11.30;60.30
36280;DHT22;22317;47.936;12.742;2023-05-07T05:50:23;11.30;60.30
36280;DHT22;22317;47.936;12.742;2023-05-07T05:52:49;11.40;60.30
36280;DHT22;22317;47.936;12.742;2023-05-07T05:55:16;11.40;60.40
36280;DHT22;22317;47.936;12.742;2023-05-07T05:57:42;11.50;60.60
36280;DHT22;22317;47.936;12.742;2023-05-07T06:00:09;11.60;60.70
36280;DHT22;22317;47.936;12.742;2023-05-07T06:02:44;11.60;60.60
36280;DHT22;22317;47.936;12.742;2023-05-07T06:05:12;11.70;60.60
36280;DHT22;22317;47.936;12.742;2023-05-07T06:07:39;11.80;60.60
36280;DHT22;22317;47.936;12.742;2023-05-07T06:10:05;11.80;60.50
36280;DHT22;22317;47.936;12.742;2023-05-07T06:12:32;11.90;60.70
36280;DHT22;22317;47.936;12.742;2023-05-07T06:14:58;12.00;60.50
36280;DHT22;22317;47.936;12.742;2023-05-07T06:17:24;12.10;60.50
36280;DHT22;22317;47.936;12.742;2023-05-07T06:19:51;12.20;60.40
36280;DHT22;22317;47.936;12.742;2023-05-07T06:22:19;12.20;60.40
36280;DHT22;22317;47.936;12.742;2023-05-07T06:24:45;12.30;60.30
36280;DHT22;22317;47.936;12.742;2023-05-07T06:27:12;12.40;60.20
36280;DHT22;22317;47.936;12.742;2023-05-07T06:29:38;12.50;60.30
36280;DHT22;22317;47.936;12.742;2023-05-07T06:32:12;12.60;60.30
36280;DHT22;22317;47.936;12.742;2023-05-07T06:34:40;12.60;60.30
36280;DHT22;22317;47.936;12.742;2023-05-07T06:37:07;12.70;60.20
36280;DHT22;22317;47.936;12.742;2023-05-07T06:39:59;12.80;60.00
36280;DHT22;22317;47.936;12.742;2023-05-07T06:42:25;12.90;60.00
36280;DHT22;22317;47.936;12.742;2023-05-07T06:44:56;13.00;60.00
36280;DHT22;22317;47.936;12.742;2023-05-07T06:47:22;13.00;60.00
36280;DHT22;22317;47.936;12.742;2023-05-07T06:49:51;13.10;60.10
36280;DHT22;22317;47.936;12.742;2023-05-07T06:52:20;13.20;60.30
36280;DHT22;22317;47.936;12.742;2023-05-07T06:54:48;13.20;60.20
36280;DHT22;22317;47.936;12.742;2023-05-07T06:57:16;13.30;60.10
36280;DHT22;22317;47.936;12.742;2023-05-07T06:59:41;13.40;60.10
36280;DHT22;22317;47.936;12.742;2023-05-07T07:02:08;13.40;60.00
36280;DHT22;22317;47.936;12.742;2023-05-07T07:04:34;13.50;60.00
36280;DHT22;22317;47.936;12.742;2023-05-07T07:07:04;13.60;59.90
36280;DHT22;22317;47.936;12.742;2023-05-07T07:09:31;13.70;59.80
36280;DHT22;22317;47.936;12.742;2023-05-07T07:11:58;13.80;59.60
36280;DHT22;22317;47.936;12.742;2023-05-07T07:14:24;13.90;59.60
36280;DHT22;22317;47.936;12.742;2023-05-07T07:16:52;14.00;59.50
36280;DHT22;22317;47.936;12.742;2023-05-07T07:19:19;14.10;59.30
36280;DHT22;22317;47.936;12.742;2023-05-07T07:21:48;14.20;59.30
36280;DHT22;22317;47.936;12.742;2023-05-07T07:24:14;14.20;59.20
36280;DHT22;22317;47.936;12.742;2023-05-07T07:26:45;14.30;59.00
36280;DHT22;22317;47.936;12.742;2023-05-07T07:29:12;14.40;59.00
36280;DHT22;22317;47.936;12.742;2023-05-07T07:31:38;14.50;58.80
36280;DHT22;22317;47.936;12.742;2023-05-07T07:34:04;14.60;58.70
36280;DHT22;22317;47.936;12.742;2023-05-07T07:36:30;14.70;58.60
36280;DHT22;22317;47.936;12.742;2023-05-07T07:38:56;14.80;58.40
36280;DHT22;22317;47.936;12.742;2023-05-07T07:41:22;14.90;58.50
36280;DHT22;22317;47.936;12.742;2023-05-07T07:43:48;15.10;58.50
36280;DHT22;22317;47.936;12.742;2023-05-07T07:46:14;15.20;58.30
36280;DHT22;22317;47.936;12.742;2023-05-07T07:48:39;15.30;58.10
36280;DHT22;22317;47.936;12.742;2023-05-07T07:51:05;15.50;57.90
36280;DHT22;22317;47.936;12.742;2023-05-07T07:53:31;15.70;57.70
36280;DHT22;22317;47.936;12.742;2023-05-07T07:55:58;15.80;57.60
36280;DHT22;22317;47.936;12.742;2023-05-07T07:58:26;16.00;57.40
36280;DHT22;22317;47.936;12.742;2023-05-07T08:00:53;16.10;57.20
36280;DHT22;22317;47.936;12.742;2023-05-07T08:03:21;16.30;57.00
36280;DHT22;22317;47.936;12.742;2023-05-07T08:05:51;16.40;56.70
36280;DHT22;22317;47.936;12.742;2023-05-07T08:08:17;16.60;56.40
36280;DHT22;22317;47.936;12.742;2023-05-07T08:10:43;16.70;56.10
36280;DHT22;22317;47.936;12.742;2023-05-07T08:13:17;16.80;55.80
36280;DHT22;22317;47.936;12.742;2023-05-07T08:15:43;16.90;55.40
36280;DHT22;22317;47.936;12.742;2023-05-07T08:18:10;17.10;55.10
36280;DHT22;22317;47.936;12.742;2023-05-07T08:20:36;17.20;54.70
36280;DHT22;22317;47.936;12.742;2023-05-07T08:23:06;17.40;54.40
36280;DHT22;22317;47.936;12.742;2023-05-07T08:25:34;17.50;54.30
36280;DHT22;22317;47.936;12.742;2023-05-07T08:28:00;17.60;53.90
36280;DHT22;22317;47.936;12.742;2023-05-07T08:30:27;17.80;53.30
36280;DHT22;22317;47.936;12.742;2023-05-07T08:32:53;18.00;52.90
36280;DHT22;22317;47.936;12.742;2023-05-07T08:35:19;18.10;52.70
36280;DHT22;22317;47.936;12.742;2023-05-07T08:37:45;18.20;52.40
36280;DHT22;22317;47.936;12.742;2023-05-07T08:40:11;18.30;52.10
36280;DHT22;22317;47.936;12.742;2023-05-07T08:42:38;18.50;51.80
36280;DHT22;22317;47.936;12.742;2023-05-07T08:45:09;18.60;51.30
36280;DHT22;22317;47.936;12.742;2023-05-07T08:47:44;18.70;50.80
36280;DHT22;22317;47.936;12.742;2023-05-07T08:50:13;18.70;50.70
36280;DHT22;22317;47.936;12.742;2023-05-07T08:52:40;18.80;50.70
36280;DHT22;22317;47.936;12.742;2023-05-07T08:55:08;18.80;50.50
36280;DHT22;22317;47.936;12.742;2023-05-07T08:57:34;18.90;50.50
36280;DHT22;22317;47.936;12.742;2023-05-07T09:00:03;19.10;50.30
36280;DHT22;22317;47.936;12.742;2023-05-07T09:02:30;19.20;50.30
36280;DHT22;22317;47.936;12.742;2023-05-07T09:04:56;19.30;50.20
36280;DHT22;22317;47.936;12.742;2023-05-07T09:07:22;19.50;50.30
36280;DHT22;22317;47.936;12.742;2023-05-07T09:09:48;19.60;50.00
36280;DHT22;22317;47.936;12.742;2023-05-07T09:12:14;19.60;49.70
36280;DHT22;22317;47.936;12.742;2023-05-07T09:14:40;19.80;49.70
36280;DHT22;22317;47.936;12.742;2023-05-07T09:17:06;19.90;49.50
36280;DHT22;22317;47.936;12.742;2023-05-07T09:19:32;20.00;49.50
36280;DHT22;22317;47.936;12.742;2023-05-07T09:22:03;20.10;49.10
36280;DHT22;22317;47.936;12.742;2023-05-07T09:24:37;20.30;48.80
36280;DHT22;22317;47.936;12.742;2023-05-07T09:27:06;20.40;48.70
36280;DHT22;22317;47.936;12.742;2023-05-07T09:29:32;20.50;48.80
36280;DHT22;22317;47.936;12.742;2023-05-07T09:32:05;20.70;48.40
36280;DHT22;22317;47.936;12.742;2023-05-07T09:34:31;20.80;48.10
36280;DHT22;22317;47.936;12.742;2023-05-07T09:37:01;20.90;47.70
36280;DHT22;22317;47.936;12.742;2023-05-07T09:39:46;21.10;47.60
36280;DHT22;22317;47.936;12.742;2023-05-07T09:42:15;21.20;47.30
36280;DHT22;22317;47.936;12.742;2023-05-07T09:44:42;21.40;47.30
36280;DHT22;22317;47.936;12.742;2023-05-07T09:47:18;21.50;46.80
36280;DHT22;22317;47.936;12.742;2023-05-07T09:49:47;21.60;46.20
36280;DHT22;22317;47.936;12.742;2023-05-07T09:52:16;21.60;46.20
36280;DHT22;22317;47.936;12.742;2023-05-07T09:54:47;21.80;46.40
36280;DHT22;22317;47.936;12.742;2023-05-07T09:57:17;21.80;46.30
36280;DHT22;22317;47.936;12.742;2023-05-07T09:59:49;22.00;46.30
36280;DHT22;22317;47.936;12.742;2023-05-07T10:02:19;22.10;46.00
36280;DHT22;22317;47.936;12.742;2023-05-07T10:04:50;22.10;45.70
36280;DHT22;22317;47.936;12.742;2023-05-07T10:07:21;22.30;45.70
36280;DHT22;22317;47.936;12.742;2023-05-07T10:09:50;22.30;45.20
36280;DHT22;22317;47.936;12.742;2023-05-07T10:12:27;22.40;45.10
36280;DHT22;22317;47.936;12.742;2023-05-07T10:14:54;22.60;45.10
36280;DHT22;22317;47.936;12.742;2023-05-07T10:17:23;22.70;45.00
36280;DHT22;22317;47.936;12.742;2023-05-07T10:19:50;22.80;44.60
36280;DHT22;22317;47.936;12.742;2023-05-07T10:22:20;23.00;44.20
36280;DHT22;22317;47.936;12.742;2023-05-07T10:24:49;23.10;43.40
36280;DHT22;22317;47.936;12.742;2023-05-07T10:27:18;23.30;43.20
36280;DHT22;22317;47.936;12.742;2023-05-07T10:30:07;23.30;42.80
36280;DHT22;22317;47.936;12.742;2023-05-07T10:32:43;23.40;42.40
36280;DHT22;22317;47.936;12.742;2023-05-07T10:35:29;23.50;42.30
36280;DHT22;22317;47.936;12.742;2023-05-07T10:37:58;23.50;42.00
36280;DHT22;22317;47.936;12.742;2023-05-07T10:40:26;23.70;41.70
36280;DHT22;22317;47.936;12.742;2023-05-07T10:42:58;23.80;41.40
36280;DHT22;22317;47.936;12.742;2023-05-07T10:45:27;23.90;40.90
36280;DHT22;22317;47.936;12.742;2023-05-07T10:48:15;24.00;40.60
36280;DHT22;22317;47.936;12.742;2023-05-07T10:50:45;24.20;39.90
36280;DHT22;22317;47.936;12.742;2023-05-07T10:58:42;24.50;39.30
36280;DHT22;22317;47.936;12.742;2023-05-07T11:01:50;24.60;39.20
36280;DHT22;22317;47.936;12.742;2023-05-07T11:04:20;24.70;38.40
36280;DHT22;22317;47.936;12.742;2023-05-07T11:07:30;24.80;38.80
36280;DHT22;22317;47.936;12.742;2023-05-07T11:10:07;24.90;38.40
36280;DHT22;22317;47.936;12.742;2023-05-07T11:15:38;25.00;38.30
36280;DHT22;22317;47.936;12.742;2023-05-07T11:18:13;25.10;37.60
36280;DHT22;22317;47.936;12.742;2023-05-07T11:20:53;25.10;37.80
36280;DHT22;22317;47.936;12.742;2023-05-07T11:26:22;25.20;37.40
36280;DHT22;22317;47.936;12.742;2023-05-07T11:29:12;25.20;37.00
36280;DHT22;22317;47.936;12.742;2023-05-07T11:31:40;25.30;36.80
36280;DHT22;22317;47.936;12.742;2023-05-07T11:34:06;25.30;36.70
36280;DHT22;22317;47.936;12.742;2023-05-07T11:36:33;25.30;36.80
36280;DHT22;22317;47.936;12.742;2023-05-07T11:39:01;25.40;36.90
36280;DHT22;22317;47.936;12.742;2023-05-07T11:41:37;25.50;36.60
36280;DHT22;22317;47.936;12.742;2023-05-07T11:44:03;25.50;36.70
36280;DHT22;22317;47.936;12.742;2023-05-07T11:46:29;25.60;36.80
36280;DHT22;22317;47.936;12.742;2023-05-07T11:48:56;25.70;36.50
36280;DHT22;22317;47.936;12.742;2023-05-07T11:51:23;25.80;36.60
36280;DHT22;22317;47.936;12.742;2023-05-07T11:53:50;26.00;36.30
36280;DHT22;22317;47.936;12.742;2023-05-07T11:56:17;26.10;35.70
36280;DHT22;22317;47.936;12.742;2023-05-07T11:58:44;26.30;35.70
36280;DHT22;22317;47.936;12.742;2023-05-07T12:01:12;26.50;35.90
36280;DHT22;22317;47.936;12.742;2023-05-07T12:03:41;26.70;35.50
36280;DHT22;22317;47.936;12.742;2023-05-07T12:06:12;26.70;34.90
36280;DHT22;22317;47.936;12.742;2023-05-07T12:08:39;26.80;34.80
36280;DHT22;22317;47.936;12.742;2023-05-07T12:11:11;26.80;34.60
36280;DHT22;22317;47.936;12.742;2023-05-07T12:13:38;26.80;34.50
36280;DHT22;22317;47.936;12.742;2023-05-07T12:16:05;26.90;34.50
36280;DHT22;22317;47.936;12.742;2023-05-07T12:18:32;26.90;34.00
36280;DHT22;22317;47.936;12.742;2023-05-07T12:20:59;26.90;33.70
36280;DHT22;22317;47.936;12.742;2023-05-07T12:23:25;26.90;33.50
36280;DHT22;22317;47.936;12.742;2023-05-07T12:25:51;27.00;33.50
36280;DHT22;22317;47.936;12.742;2023-05-07T12:28:18;27.10;33.00
36280;DHT22;22317;47.936;12.742;2023-05-07T12:30:46;27.10;32.70
36280;DHT22;22317;47.936;12.742;2023-05-07T12:33:14;27.10;32.70
36280;DHT22;22317;47.936;12.742;2023-05-07T12:35:42;27.20;32.70
36280;DHT22;22317;47.936;12.742;2023-05-07T12:38:13;27.20;32.70
36280;DHT22;22317;47.936;12.742;2023-05-07T12:40:44;27.20;32.70
36280;DHT22;22317;47.936;12.742;2023-05-07T12:43:29;27.20;32.20
36280;DHT22;22317;47.936;12.742;2023-05-07T12:46:00;27.40;31.90
36280;DHT22;22317;47.936;12.742;2023-05-07T12:48:27;27.40;31.90
36280;DHT22;22317;47.936;12.742;2023-05-07T12:50:54;27.40;32.00
36280;DHT22;22317;47.936;12.742;2023-05-07T12:53:21;27.50;32.10
36280;DHT22;22317;47.936;12.742;2023-05-07T12:55:49;27.50;31.90
36280;DHT22;22317;47.936;12.742;2023-05-07T12:58:41;27.40;31.60
36280;DHT22;22317;47.936;12.742;2023-05-07T13:01:08;27.30;31.00
36280;DHT22;22317;47.936;12.742;2023-05-07T13:03:37;27.10;31.60
36280;DHT22;22317;47.936;12.742;2023-05-07T13:06:05;27.10;31.60
36280;DHT22;22317;47.936;12.742;2023-05-07T13:08:37;27.10;31.70
36280;DHT22;22317;47.936;12.742;2023-05-07T13:11:07;27.10;31.90
36280;DHT22;22317;47.936;12.742;2023-05-07T13:13:34;27.30;32.20
36280;DHT22;22317;47.936;12.742;2023-05-07T13:16:01;27.40;32.10
36280;DHT22;22317;47.936;12.742;2023-05-07T13:18:29;27.50;32.60
36280;DHT22;22317;47.936;12.742;2023-05-07T13:20:55;27.60;31.60
36280;DHT22;22317;47.936;12.742;2023-05-07T13:23:21;27.60;31.60
36280;DHT22;22317;47.936;12.742;2023-05-07T13:25:48;27.60;31.50
36280;DHT22;22317;47.936;12.742;2023-05-07T13:28:16;27.70;31.70
36280;DHT22;22317;47.936;12.742;2023-05-07T13:30:41;27.70;31.50
36280;DHT22;22317;47.936;12.742;2023-05-07T13:33:08;27.70;31.10
36280;DHT22;22317;47.936;12.742;2023-05-07T13:35:34;27.70;31.00
36280;DHT22;22317;47.936;12.742;2023-05-07T13:38:00;27.70;30.90
36280;DHT22;22317;47.936;12.742;2023-05-07T13:40:26;27.70;31.00
36280;DHT22;22317;47.936;12.742;2023-05-07T13:42:52;27.70;31.00
36280;DHT22;22317;47.936;12.742;2023-05-07T13:45:18;27.90;31.40
36280;DHT22;22317;47.936;12.742;2023-05-07T13:47:44;27.70;31.10
36280;DHT22;22317;47.936;12.742;2023-05-07T13:50:11;27.80;31.30
36280;DHT22;22317;47.936;12.742;2023-05-07T13:52:43;27.80;31.10
36280;DHT22;22317;47.936;12.742;2023-05-07T13:55:11;27.80;31.20
36280;DHT22;22317;47.936;12.742;2023-05-07T13:57:37;27.90;30.90
36280;DHT22;22317;47.936;12.742;2023-05-07T14:00:04;27.80;30.90
36280;DHT22;22317;47.936;12.742;2023-05-07T14:02:40;27.90;31.00
36280;DHT22;22317;47.936;12.742;2023-05-07T14:05:07;27.90;31.10
36280;DHT22;22317;47.936;12.742;2023-05-07T14:07:33;27.90;30.90
36280;DHT22;22317;47.936;12.742;2023-05-07T14:09:59;27.90;30.80
36280;DHT22;22317;47.936;12.742;2023-05-07T14:12:24;27.90;30.80
36280;DHT22;22317;47.936;12.742;2023-05-07T14:14:50;27.80;30.90
36280;DHT22;22317;47.936;12.742;2023-05-07T14:17:17;27.80;30.70
36280;DHT22;22317;47.936;12.742;2023-05-07T14:19:43;27.70;30.60
36280;DHT22;22317;47.936;12.742;2023-05-07T14:22:09;27.60;30.70
36280;DHT22;22317;47.936;12.742;2023-05-07T14:24:35;27.50;30.50
36280;DHT22;22317;47.936;12.742;2023-05-07T14:27:01;27.40;30.70
36280;DHT22;22317;47.936;12.742;2023-05-07T14:29:27;27.30;30.70
36280;DHT22;22317;47.936;12.742;2023-05-07T14:31:53;27.10;30.80
36280;DHT22;22317;47.936;12.742;2023-05-07T14:34:18;26.90;30.90
36280;DHT22;22317;47.936;12.742;2023-05-07T14:36:44;26.80;31.00
36280;DHT22;22317;47.936;12.742;2023-05-07T14:39:10;26.70;31.30
36280;DHT22;22317;47.936;12.742;2023-05-07T14:41:36;26.50;31.10
36280;DHT22;22317;47.936;12.742;2023-05-07T14:44:02;26.40;31.20
36280;DHT22;22317;47.936;12.742;2023-05-07T14:46:29;26.30;31.20
36280;DHT22;22317;47.936;12.742;2023-05-07T14:48:56;26.10;31.40
36280;DHT22;22317;47.936;12.742;2023-05-07T14:51:22;25.90;31.50
36280;DHT22;22317;47.936;12.742;2023-05-07T14:53:50;25.70;31.60
36280;DHT22;22317;47.936;12.742;2023-05-07T14:56:16;25.60;31.80
36280;DHT22;22317;47.936;12.742;2023-05-07T14:58:43;25.50;32.10
36280;DHT22;22317;47.936;12.742;2023-05-07T15:01:09;25.40;32.10
36280;DHT22;22317;47.936;12.742;2023-05-07T15:03:34;25.30;32.20
36280;DHT22;22317;47.936;12.742;2023-05-07T15:06:01;25.20;32.40
36280;DHT22;22317;47.936;12.742;2023-05-07T15:08:28;25.20;32.50
36280;DHT22;22317;47.936;12.742;2023-05-07T15:10:54;25.20;32.40
36280;DHT22;22317;47.936;12.742;2023-05-07T15:13:20;25.20;32.60
36280;DHT22;22317;47.936;12.742;2023-05-07T15:15:46;25.10;32.40
36280;DHT22;22317;47.936;12.742;2023-05-07T15:18:12;25.00;32.40
36280;DHT22;22317;47.936;12.742;2023-05-07T15:20:38;25.60;33.10
36280;DHT22;22317;47.936;12.742;2023-05-07T15:23:06;24.80;32.70
36280;DHT22;22317;47.936;12.742;2023-05-07T15:25:35;24.70;32.70
36280;DHT22;22317;47.936;12.742;2023-05-07T15:28:01;24.60;32.80
36280;DHT22;22317;47.936;12.742;2023-05-07T15:30:27;24.50;33.00
36280;DHT22;22317;47.936;12.742;2023-05-07T15:32:53;24.30;32.70
36280;DHT22;22317;47.936;12.742;2023-05-07T15:35:19;24.20;32.70